createdAt,value
2023-03-30T00:05:05.981Z,13.00
2023-03-30T00:10:31.141Z,12.20
2023-03-30T00:15:53.979Z,11.47
2023-03-30T00:21:18.740Z,13.00
2023-03-30T00:26:41.935Z,12.23
2023-03-30T00:32:04.666Z,13.40
2023-03-30T00:37:28.084Z,12.50
2023-03-30T00:42:51.285Z,12.57
2023-03-30T00:48:22.407Z,12.70
2023-03-30T00:53:53.071Z,13.25
2023-03-30T00:59:16.175Z,12.78
2023-03-30T01:04:39.304Z,13.30
2023-03-30T01:10:01.961Z,12.53
2023-03-30T01:15:25.589Z,12.58
2023-03-30T01:20:58.942Z,13.13
2023-03-30T01:27:14.370Z,12.53
2023-03-30T01:33:17.661Z,13.20
2023-03-30T01:39:04.967Z,13.50
2023-03-30T01:44:50.663Z,12.20
2023-03-30T01:50:42.060Z,13.10
2023-03-30T01:56:18.628Z,12.33
2023-03-30T02:01:43.578Z,12.18
2023-03-30T02:07:11.429Z,12.90
2023-03-30T02:12:36.399Z,13.77
2023-03-30T02:17:59.034Z,14.18
2023-03-30T02:23:23.374Z,12.95
2023-03-30T02:28:46.567Z,14.53
2023-03-30T02:34:30.244Z,14.07
2023-03-30T02:40:21.378Z,14.35
2023-03-30T02:46:12.070Z,14.10
2023-03-30T02:51:58.189Z,13.67
2023-03-30T02:58:06.726Z,13.95
2023-03-30T03:03:42.494Z,13.95
2023-03-30T03:09:06.918Z,13.28
2023-03-30T03:14:30.809Z,12.85
2023-03-30T03:20:04.420Z,13.70
2023-03-30T03:25:27.579Z,12.17
2023-03-30T03:30:50.511Z,14.03
2023-03-30T03:36:13.576Z,14.27
2023-03-30T03:41:36.317Z,16.30
2023-03-30T03:46:58.801Z,15.20
2023-03-30T03:52:21.300Z,16.67
2023-03-30T03:57:45.295Z,15.10
2023-03-30T04:03:09.443Z,15.60
2023-03-30T04:08:32.260Z,17.60
2023-03-30T04:13:54.832Z,16.27
2023-03-30T04:19:17.356Z,15.18
2023-03-30T04:24:40.344Z,15.80
2023-03-30T04:30:04.041Z,16.30
2023-03-30T04:35:27.945Z,15.30
2023-03-30T04:40:50.375Z,16.07
2023-03-30T04:46:14.173Z,27.00
2023-03-30T04:51:37.836Z,44.83
2023-03-30T04:57:00.965Z,43.23
2023-03-30T05:02:24.459Z,31.95
2023-03-30T05:07:47.061Z,29.77
2023-03-30T05:13:11.081Z,46.80
2023-03-30T05:18:33.582Z,21.10
2023-03-30T05:23:56.586Z,16.48
2023-03-30T05:29:18.915Z,16.13
2023-03-30T05:34:42.376Z,16.60
2023-03-30T05:40:06.809Z,15.83
2023-03-30T05:45:29.402Z,15.50
2023-03-30T05:50:54.072Z,16.60
2023-03-30T05:56:17.126Z,17.07
2023-03-30T06:01:42.236Z,17.67
2023-03-30T06:07:04.736Z,29.47
2023-03-30T06:12:27.304Z,17.10
2023-03-30T06:23:46.652Z,17.23
2023-03-30T06:29:09.290Z,15.10
2023-03-30T06:34:32.585Z,22.53
2023-03-30T06:39:57.946Z,15.93
2023-03-30T06:45:20.862Z,15.17
2023-03-30T06:50:44.014Z,17.07
2023-03-30T06:56:12.351Z,16.93
2023-03-30T07:01:35.537Z,16.97
2023-03-30T07:06:58.093Z,17.95
2023-03-30T07:12:20.694Z,18.60
2023-03-30T07:17:43.700Z,17.48
2023-03-30T07:23:06.434Z,16.37
2023-03-30T07:28:28.846Z,15.18
2023-03-30T07:33:51.380Z,16.57
2023-03-30T07:39:13.908Z,15.58
2023-03-30T07:44:36.438Z,16.25
2023-03-30T07:49:58.807Z,18.27
2023-03-30T07:55:21.428Z,17.98
2023-03-30T08:00:45.232Z,17.48
2023-03-30T08:06:13.335Z,17.37
2023-03-30T08:11:36.551Z,16.15
2023-03-30T08:16:58.812Z,16.67
2023-03-30T08:22:21.277Z,15.30
2023-03-30T08:27:43.704Z,15.50
2023-03-30T08:33:06.289Z,15.97
2023-03-30T08:38:29.588Z,16.30
2023-03-30T08:44:21.018Z,17.10
2023-03-30T08:50:06.994Z,16.90
2023-03-30T08:55:37.525Z,16.80
2023-03-30T09:01:37.046Z,16.97
2023-03-30T09:07:07.226Z,15.70
2023-03-30T09:12:52.904Z,14.33
2023-03-30T09:18:22.729Z,14.23
2023-03-30T09:23:47.493Z,14.00
2023-03-30T09:29:30.093Z,15.53
2023-03-30T09:35:03.824Z,16.73
2023-03-30T09:41:00.020Z,17.70
2023-03-30T09:46:33.814Z,17.17
2023-03-30T09:52:09.601Z,16.67
2023-03-30T09:57:45.667Z,15.67
2023-03-30T10:03:14.069Z,15.50
2023-03-30T10:08:38.397Z,15.03
2023-03-30T10:14:05.674Z,14.27
2023-03-30T10:19:31.278Z,15.53
2023-03-30T10:24:57.395Z,15.83
2023-03-30T10:30:28.701Z,16.30
2023-03-30T10:35:57.038Z,15.30
2023-03-30T10:41:29.752Z,14.17
2023-03-30T10:46:52.926Z,11.95
2023-03-30T10:52:48.798Z,12.00
2023-03-30T10:58:13.712Z,12.70
2023-03-30T11:03:42.201Z,16.15
2023-03-30T11:09:10.794Z,14.73
2023-03-30T11:14:50.048Z,14.47
2023-03-30T11:20:38.027Z,12.88
2023-03-30T11:26:32.360Z,12.60
2023-03-30T11:32:02.829Z,11.80
2023-03-30T11:37:39.490Z,11.60
2023-03-30T11:43:02.370Z,12.55
2023-03-30T11:49:16.886Z,12.07
2023-03-30T11:55:03.561Z,12.73
2023-03-30T12:00:48.180Z,12.73
2023-03-30T12:06:46.636Z,13.20
2023-03-30T12:12:24.792Z,11.90
2023-03-30T12:18:09.182Z,12.20
2023-03-30T12:24:11.293Z,10.07
2023-03-30T12:41:04.456Z,12.90
2023-03-30T12:46:38.525Z,13.95
2023-03-30T12:52:46.950Z,13.03
2023-03-30T12:58:49.290Z,12.43
2023-03-30T13:04:24.266Z,13.60
2023-03-30T13:10:32.807Z,13.20
2023-03-30T13:16:01.474Z,13.00
2023-03-30T13:21:29.605Z,13.13
2023-03-30T13:27:00.261Z,14.00
2023-03-30T13:32:33.824Z,12.23
2023-03-30T13:38:29.417Z,12.25
2023-03-30T13:44:28.990Z,12.40
2023-03-30T13:50:05.542Z,10.43
2023-03-30T13:55:41.304Z,11.73
2023-03-30T14:01:23.027Z,11.83
2023-03-30T14:06:51.106Z,13.23
2023-03-30T14:12:17.412Z,13.77
2023-03-30T14:17:41.558Z,13.17
2023-03-30T14:23:06.881Z,13.15
2023-03-30T14:28:42.985Z,13.27
2023-03-30T14:34:06.321Z,11.43
2023-03-30T14:39:30.994Z,13.30
2023-03-30T14:44:57.998Z,15.15
2023-03-30T14:50:22.853Z,15.00
2023-03-30T14:55:46.578Z,14.45
2023-03-30T15:01:13.026Z,14.18
2023-03-30T15:06:38.687Z,14.13
2023-03-30T15:12:07.223Z,13.17
2023-03-30T15:17:33.146Z,14.30
2023-03-30T15:23:06.831Z,14.53
2023-03-30T15:28:36.760Z,15.30
2023-03-30T15:34:23.528Z,15.37
2023-03-30T15:39:52.210Z,14.40
2023-03-30T15:45:24.091Z,15.83
2023-03-30T15:50:48.356Z,14.43
2023-03-30T15:56:13.409Z,13.03
2023-03-30T16:01:49.303Z,14.57
2023-03-30T16:07:30.710Z,14.50
2023-03-30T16:12:56.904Z,14.50
2023-03-30T16:18:19.307Z,16.00
2023-03-30T16:23:41.783Z,24.57
2023-03-30T16:29:05.766Z,17.05
2023-03-30T16:34:28.150Z,17.77
2023-03-30T16:39:50.518Z,17.73
2023-03-30T16:45:14.527Z,16.17
2023-03-30T16:50:50.399Z,16.40
2023-03-30T16:56:12.903Z,17.00
2023-03-30T17:01:36.915Z,18.52
2023-03-30T17:06:59.991Z,19.65
2023-03-30T17:12:22.499Z,18.45
2023-03-30T17:17:44.963Z,17.70
2023-03-30T17:23:10.496Z,18.12
2023-03-30T17:28:42.582Z,19.43
2023-03-30T17:34:07.464Z,20.53
2023-03-30T17:39:33.780Z,20.45
2023-03-30T17:44:56.268Z,19.92
2023-03-30T17:50:28.057Z,21.60
2023-03-30T17:56:02.005Z,25.00
2023-03-30T18:01:25.653Z,22.82
2023-03-30T18:06:49.094Z,20.50
2023-03-30T18:12:11.460Z,20.93
2023-03-30T18:17:34.327Z,19.93
2023-03-30T18:22:56.939Z,20.12
2023-03-30T18:28:22.639Z,19.82
2023-03-30T18:33:45.072Z,19.27
2023-03-30T18:39:08.660Z,19.23
2023-03-30T18:44:31.971Z,19.37
2023-03-30T18:49:54.253Z,19.50
2023-03-30T18:55:17.317Z,19.92
2023-03-30T19:00:42.213Z,19.63
2023-03-30T19:06:06.342Z,59.23
2023-03-30T19:11:35.672Z,21.05
2023-03-30T19:16:58.113Z,20.23
2023-03-30T19:22:20.513Z,16.05
2023-03-30T19:27:59.277Z,12.63
2023-03-30T19:33:09.432Z,11.00
2023-03-30T19:38:33.882Z,8.08
2023-03-30T19:43:56.251Z,8.10
2023-03-30T19:49:20.236Z,5.10
2023-03-30T19:54:52.545Z,4.13
2023-03-30T20:00:16.513Z,3.90
2023-03-30T20:05:39.596Z,3.73
2023-03-30T20:11:03.801Z,2.80
2023-03-30T20:16:29.798Z,3.20
2023-03-30T20:21:52.279Z,2.83
2023-03-30T20:27:15.054Z,4.73
2023-03-30T20:32:37.498Z,4.60
2023-03-30T20:37:59.962Z,3.83
2023-03-30T20:43:22.277Z,3.77
2023-03-30T20:48:47.235Z,3.90
2023-03-30T20:54:10.885Z,4.90
2023-03-30T20:59:33.764Z,4.50
2023-03-30T21:10:35.182Z,5.13
2023-03-30T21:16:07.085Z,6.75
2023-03-30T21:21:30.477Z,6.22
2023-03-30T21:26:52.886Z,5.30
2023-03-30T21:32:15.302Z,4.57
2023-03-30T21:37:37.694Z,4.15
2023-03-30T21:43:00.286Z,4.55
2023-03-30T21:48:23.209Z,4.13
2023-03-30T21:53:48.689Z,4.47
2023-03-30T21:59:11.515Z,4.60
2023-03-30T22:04:33.894Z,4.30
2023-03-30T22:09:57.773Z,4.17
2023-03-30T22:15:22.283Z,4.40
2023-03-30T22:20:46.412Z,4.90
2023-03-30T22:26:09.783Z,6.10
2023-03-30T22:31:33.111Z,6.35
2023-03-30T22:36:55.447Z,6.20
2023-03-30T22:42:18.662Z,6.13
2023-03-30T22:47:40.943Z,8.00
2023-03-30T22:53:04.053Z,7.47
2023-03-30T22:58:26.996Z,7.80
2023-03-30T23:03:49.587Z,7.50
2023-03-30T23:09:13.947Z,7.90
2023-03-30T23:14:38.162Z,6.72
2023-03-30T23:20:00.771Z,6.95
2023-03-30T23:25:25.680Z,7.43
2023-03-30T23:30:49.881Z,6.92
2023-03-30T23:36:17.645Z,7.43
2023-03-30T23:41:41.181Z,7.50
2023-03-30T23:47:03.460Z,6.55
2023-03-30T23:52:26.560Z,7.15
2023-03-30T23:57:48.876Z,7.20
